Time;durP1;ratioP1;P1;durP2;ratioP2;P2;SDS_P1;SDS_P2;PMS_P1;PMS_P2;Temp;Humidity;BMP_temperature;BMP_pressure;BME280_temperature;BME280_humidity;BME280_pressure;Samples;Min_cycle;Max_cycle;Signal;HPM_P1;HPM_P2
2023/10/31 00:02:17;;;;;;;4.40;1.63;;;;;;;17.96;57.27;99184.97;6130792;23;20166;-91
2023/10/31 00:04:42;;;;;;;4.07;1.57;;;;;;;17.91;56.86;99179.22;6131887;23;20235;-91
2023/10/31 00:07:09;;;;;;;8.60;2.50;;;;;;;17.82;56.67;99171.19;6130715;23;20649;-91
2023/10/31 00:09:34;;;;;;;7.70;2.50;;;;;;;17.79;56.75;99181.03;6155296;23;20193;-91
2023/10/31 00:12:00;;;;;;;4.20;2.17;;;;;;;17.76;56.50;99173.38;6130516;23;20162;-91
2023/10/31 00:14:26;;;;;;;6.20;2.10;;;;;;;17.75;56.21;99169.03;6156399;23;20178;-91
2023/10/31 00:16:56;;;;;;;7.53;2.70;;;;;;;17.71;56.12;99169.41;6130226;23;20151;-91
2023/10/31 00:19:21;;;;;;;6.00;2.10;;;;;;;17.70;56.03;99167.72;6156184;23;20178;-90
2023/10/31 00:21:47;;;;;;;4.87;1.93;;;;;;;17.61;56.00;99174.59;6129905;23;20155;-91
2023/10/31 00:24:12;;;;;;;5.83;1.80;;;;;;;17.57;56.00;99172.31;6130698;23;20622;-91
2023/10/31 00:26:39;;;;;;;9.40;2.23;;;;;;;17.48;56.05;99175.69;6131050;23;20562;-91
2023/10/31 00:29:05;;;;;;;7.53;2.13;;;;;;;17.49;56.16;99164.94;6156134;23;20226;-91
2023/10/31 00:31:31;;;;;;;8.57;2.40;;;;;;;17.50;56.00;99166.66;6130693;23;20174;-91
2023/10/31 00:33:57;;;;;;;6.27;1.60;;;;;;;17.43;56.39;99170.72;6130458;23;20159;-91
2023/10/31 00:36:23;;;;;;;6.83;1.83;;;;;;;17.48;55.90;99163.25;6155667;23;20194;-91
2023/10/31 00:38:49;;;;;;;6.47;1.73;;;;;;;17.43;56.14;99160.13;6155914;23;20229;-91
2023/10/31 00:41:16;;;;;;;6.53;2.40;;;;;;;17.33;56.98;99156.53;6155861;23;20147;-91
2023/10/31 00:43:43;;;;;;;4.43;1.60;;;;;;;17.22;57.40;99161.84;6154811;23;20159;-91
2023/10/31 00:46:10;;;;;;;4.57;1.57;;;;;;;17.09;57.92;99158.47;6154217;23;20174;-91
2023/10/31 00:48:37;;;;;;;8.10;2.13;;;;;;;17.09;58.13;99166.41;6156506;23;20237;-91
2023/10/31 00:51:05;;;;;;;4.17;1.60;;;;;;;17.11;58.10;99152.09;6130206;23;20155;-91
2023/10/31 00:53:31;;;;;;;6.30;1.80;;;;;;;17.16;57.84;99160.50;6155753;23;20151;-91
2023/10/31 00:55:58;;;;;;;4.17;2.07;;;;;;;17.11;57.87;99164.50;6129949;23;20179;-90
2023/10/31 00:58:24;;;;;;;4.80;1.83;;;;;;;17.14;57.98;99151.00;6155838;23;20151;-91
2023/10/31 01:00:50;;;;;;;5.10;2.00;;;;;;;17.10;58.02;99153.06;6156124;23;20179;-91
2023/10/31 01:03:16;;;;;;;4.60;2.27;;;;;;;17.03;58.24;99146.56;6156128;23;20147;-91
2023/10/31 01:05:42;;;;;;;5.53;1.90;;;;;;;16.99;58.23;99144.28;6155567;23;20147;-91
2023/10/31 01:08:09;;;;;;;5.17;1.93;;;;;;;17.05;58.08;99149.94;6155432;23;20154;-91
2023/10/31 01:10:34;;;;;;;4.20;1.90;;;;;;;17.02;57.80;99136.94;6156335;23;20582;-91
2023/10/31 01:13:00;;;;;;;6.77;1.43;;;;;;;16.91;57.89;99136.09;6155672;23;20178;-91
2023/10/31 01:15:26;;;;;;;4.17;1.80;;;;;;;16.86;57.94;99143.53;6155485;23;20524;-91
2023/10/31 01:17:52;;;;;;;6.60;2.00;;;;;;;16.80;58.24;99150.16;6155669;23;20160;-91
2023/10/31 01:20:17;;;;;;;4.67;1.97;;;;;;;16.80;58.06;99141.38;6156020;23;20233;-91
2023/10/31 01:22:43;;;;;;;4.37;1.90;;;;;;;16.76;58.01;99143.44;6155499;23;20230;-91
2023/10/31 01:25:08;;;;;;;5.70;2.03;;;;;;;16.70;58.05;99143.91;6155619;23;20282;-91
2023/10/31 01:27:35;;;;;;;5.10;2.20;;;;;;;16.65;58.36;99150.50;6130480;23;20157;-90
2023/10/31 01:30:03;;;;;;;5.73;1.97;;;;;;;16.59;58.36;99149.16;6129719;23;20155;-91
2023/10/31 01:32:28;;;;;;;3.93;2.00;;;;;;;16.55;58.68;99145.94;6129893;23;20272;-91
2023/10/31 01:34:54;;;;;;;5.90;2.13;;;;;;;16.57;58.26;99141.38;6129664;23;20536;-91
2023/10/31 01:37:21;;;;;;;5.13;2.13;;;;;;;16.59;58.35;99134.13;6129425;23;20170;-91
2023/10/31 01:39:47;;;;;;;7.63;2.57;;;;;;;16.62;58.21;99138.34;6130323;23;20559;-91
2023/10/31 01:42:16;;;;;;;9.47;2.70;;;;;;;16.49;58.30;99146.38;6155426;23;20214;-91
2023/10/31 01:44:43;;;;;;;7.90;2.70;;;;;;;16.46;58.22;99136.00;6155697;23;20151;-91
2023/10/31 01:47:09;;;;;;;5.73;2.50;;;;;;;16.43;58.34;99135.41;6155230;23;20233;-91
2023/10/31 01:49:36;;;;;;;7.83;2.97;;;;;;;16.46;58.27;99140.44;6155631;23;20174;-91
2023/10/31 01:52:03;;;;;;;8.07;3.70;;;;;;;16.44;57.86;99135.28;6129652;23;20225;-90
2023/10/31 01:54:29;;;;;;;7.73;3.50;;;;;;;16.39;58.28;99132.16;6129876;23;20566;-91
2023/10/31 01:56:57;;;;;;;7.43;3.23;;;;;;;16.20;59.33;99141.59;6129599;23;20154;-91
2023/10/31 01:59:28;;;;;;;8.87;2.80;;;;;;;16.08;60.06;99130.16;6155483;23;20151;-91
2023/10/31 02:01:57;;;;;;;5.73;2.60;;;;;;;16.05;60.90;99130.38;6155409;23;20171;-90
2023/10/31 02:04:24;;;;;;;7.77;2.73;;;;;;;16.05;61.37;99133.03;6155458;23;20626;-90
2023/10/31 02:06:50;;;;;;;10.17;2.73;;;;;;;16.06;61.75;99129.44;6155331;23;20154;-91
2023/10/31 02:09:16;;;;;;;8.60;3.37;;;;;;;15.98;62.48;99129.16;6129727;23;20256;-90
2023/10/31 02:11:41;;;;;;;4.63;2.60;;;;;;;16.02;62.51;99124.47;6155233;23;20527;-90
2023/10/31 02:14:08;;;;;;;8.10;2.70;;;;;;;16.01;62.64;99120.97;6130470;23;20237;-91
2023/10/31 02:16:34;;;;;;;4.70;2.40;;;;;;;16.07;62.52;99127.59;6129259;23;20159;-91
2023/10/31 02:19:00;;;;;;;6.70;3.17;;;;;;;16.08;62.21;99127.50;6131629;23;20162;-91
2023/10/31 02:21:27;;;;;;;8.47;3.83;;;;;;;16.09;62.21;99126.53;6157230;23;20225;-91
2023/10/31 02:24:00;;;;;;;8.17;3.20;;;;;;;16.11;62.22;99126.44;6157114;23;20147;-91
2023/10/31 02:26:34;;;;;;;10.03;3.33;;;;;;;16.06;62.20;99123.28;6157095;23;20146;-91
2023/10/31 02:29:02;;;;;;;8.63;3.27;;;;;;;16.00;61.91;99121.94;6157728;23;20161;-91
2023/10/31 02:31:29;;;;;;;6.67;3.50;;;;;;;16.05;61.64;99124.22;6131372;23;20154;-91
2023/10/31 02:33:56;;;;;;;8.03;3.53;;;;;;;16.02;60.96;99117.38;6157167;23;20152;-91
2023/10/31 02:36:23;;;;;;;7.20;2.83;;;;;;;16.05;60.51;99119.78;6156749;23;20205;-91
2023/10/31 02:38:48;;;;;;;6.03;3.20;;;;;;;16.08;60.14;99114.28;6131303;23;20245;-91
2023/10/31 02:41:14;;;;;;;9.00;3.00;;;;;;;15.99;60.05;99114.97;6131296;23;20583;-91
2023/10/31 02:43:41;;;;;;;8.70;3.27;;;;;;;15.94;59.88;99117.94;6157149;23;20150;-91
2023/10/31 02:46:08;;;;;;;8.80;2.73;;;;;;;15.91;59.92;99107.59;6131216;23;20230;-90
2023/10/31 02:48:39;;;;;;;6.90;2.90;;;;;;;15.89;60.00;99111.31;6156937;23;20162;-91
2023/10/31 02:51:05;;;;;;;9.53;3.20;;;;;;;15.85;60.07;99104.59;6157063;23;20134;-91
2023/10/31 02:53:31;;;;;;;9.30;3.40;;;;;;;15.79;60.42;99107.69;6131135;23;20158;-91
2023/10/31 02:55:57;;;;;;;6.63;3.73;;;;;;;15.79;60.35;99112.97;6156791;23;20188;-90
2023/10/31 02:58:24;;;;;;;6.53;2.80;;;;;;;15.70;60.74;99114.47;6131166;23;20158;-90
2023/10/31 03:00:53;;;;;;;6.83;3.20;;;;;;;15.69;60.96;99109.31;6130817;23;20188;-90
2023/10/31 03:03:18;;;;;;;7.53;3.37;;;;;;;15.66;60.96;99113.03;6132073;23;20224;-90
2023/10/31 03:05:45;;;;;;;6.20;3.57;;;;;;;15.70;61.25;99113.63;6131379;23;20155;-90
2023/10/31 03:08:12;;;;;;;10.03;3.23;;;;;;;15.77;60.68;99114.88;6155624;23;20500;-91
2023/10/31 03:10:38;;;;;;;5.27;3.20;;;;;;;15.80;60.82;99107.56;6131164;23;20597;-91
2023/10/31 03:13:04;;;;;;;7.97;3.80;;;;;;;15.89;60.81;99108.69;6156925;23;20153;-91
2023/10/31 03:15:31;;;;;;;8.10;3.13;;;;;;;15.96;60.67;99109.91;6156663;23;20251;-91
2023/10/31 03:17:56;;;;;;;11.43;2.93;;;;;;;15.91;61.04;99107.59;6131202;23;20162;-91
2023/10/31 03:20:22;;;;;;;9.33;3.73;;;;;;;15.83;61.75;99109.13;6131416;23;20157;-91
2023/10/31 03:22:47;;;;;;;8.13;3.37;;;;;;;15.75;61.85;99116.78;6131857;23;20388;-91
2023/10/31 03:25:14;;;;;;;7.23;3.53;;;;;;;15.73;62.17;99110.78;6157124;23;20529;-91
2023/10/31 03:27:40;;;;;;;9.47;3.67;;;;;;;15.73;63.10;99113.41;6132260;23;20561;-91
2023/10/31 03:30:08;;;;;;;6.27;3.03;;;;;;;15.76;62.99;99113.19;6130298;23;20477;-90
2023/10/31 03:32:34;;;;;;;7.17;2.90;;;;;;;15.77;63.34;99115.72;6156897;23;20165;-91
2023/10/31 03:35:00;;;;;;;7.27;3.40;;;;;;;15.78;62.77;99109.47;6130899;23;20211;-91
2023/10/31 03:37:26;;;;;;;8.03;3.27;;;;;;;15.80;62.89;99104.09;6130757;23;20161;-90
2023/10/31 03:39:52;;;;;;;11.90;3.20;;;;;;;15.70;61.53;99103.91;6130850;23;20234;-91
2023/10/31 03:42:17;;;;;;;6.47;3.00;;;;;;;15.61;61.46;99101.13;6156441;23;20152;-90
2023/10/31 03:44:44;;;;;;;6.43;3.10;;;;;;;15.61;61.48;99109.03;6131156;23;20241;-90
2023/10/31 03:47:11;;;;;;;10.20;3.37;;;;;;;15.66;61.37;99110.41;6156412;23;20187;-90
2023/10/31 03:49:40;;;;;;;6.10;2.90;;;;;;;15.74;61.06;99101.91;6157118;23;20161;-90
2023/10/31 03:52:06;;;;;;;8.73;2.53;;;;;;;15.80;60.93;99094.34;6130526;23;20164;-90
2023/10/31 03:54:32;;;;;;;7.07;2.77;;;;;;;15.75;60.95;99104.41;6130551;23;20185;-90
2023/10/31 03:56:59;;;;;;;6.63;2.87;;;;;;;15.72;61.14;99103.81;6130089;23;20201;-90
2023/10/31 03:59:26;;;;;;;5.23;2.63;;;;;;;15.72;61.04;99104.63;6156621;23;20160;-90
2023/10/31 04:01:51;;;;;;;7.80;3.50;;;;;;;15.75;61.12;99099.13;6156978;23;20485;-90
2023/10/31 04:04:17;;;;;;;7.27;3.27;;;;;;;15.74;60.89;99101.91;6130740;23;20167;-90
2023/10/31 04:06:44;;;;;;;7.60;3.47;;;;;;;15.67;61.06;99103.31;6156405;23;20158;-90
2023/10/31 04:09:09;;;;;;;7.83;3.10;;;;;;;15.60;61.20;99096.78;6130780;23;20163;-90
2023/10/31 04:11:35;;;;;;;9.60;3.20;;;;;;;15.57;61.44;99108.41;6156058;23;20155;-90
2023/10/31 04:14:03;;;;;;;6.43;3.40;;;;;;;15.51;61.87;99108.03;6131146;23;20154;-90
2023/10/31 04:16:30;;;;;;;6.87;3.50;;;;;;;15.59;61.64;99097.75;6130616;23;20216;-90
2023/10/31 04:18:55;;;;;;;8.27;3.70;;;;;;;15.64;61.51;99103.53;6130302;23;20189;-90
2023/10/31 04:21:22;;;;;;;5.47;2.63;;;;;;;15.55;61.85;99104.19;6155289;23;20177;-91
2023/10/31 04:23:47;;;;;;;5.73;3.37;;;;;;;15.55;62.29;99098.91;6156047;23;20153;-90
2023/10/31 04:26:15;;;;;;;7.23;3.53;;;;;;;15.54;62.44;99094.59;6156574;23;20229;-90
2023/10/31 04:28:42;;;;;;;7.20;3.83;;;;;;;15.46;62.50;99105.69;6156094;23;20158;-90
2023/10/31 04:31:08;;;;;;;8.43;4.30;;;;;;;15.39;62.90;99100.00;6130232;23;20559;-90
2023/10/31 04:33:35;;;;;;;6.00;3.60;;;;;;;15.42;63.06;99100.72;6155878;23;20225;-90
2023/10/31 04:36:02;;;;;;;10.93;4.30;;;;;;;15.46;62.84;99100.41;6129512;23;20188;-90
2023/10/31 04:38:28;;;;;;;7.40;4.00;;;;;;;15.49;62.64;99105.47;6130833;23;20531;-90
2023/10/31 04:40:55;;;;;;;13.70;3.70;;;;;;;15.43;62.36;99108.56;6129069;23;20165;-90
2023/10/31 04:43:20;;;;;;;7.07;4.00;;;;;;;15.37;62.39;99117.78;6156047;23;20200;-90
2023/10/31 04:45:47;;;;;;;12.80;3.70;;;;;;;15.35;62.47;99103.00;6130217;23;20157;-90
2023/10/31 04:48:13;;;;;;;10.20;3.80;;;;;;;15.29;62.54;99113.97;6129983;23;20154;-90
2023/10/31 04:50:39;;;;;;;8.03;3.30;;;;;;;15.24;62.71;99116.13;6129879;23;20156;-90
2023/10/31 04:53:04;;;;;;;6.60;3.33;;;;;;;15.23;62.90;99111.78;6128951;23;20255;-89
2023/10/31 04:55:37;;;;;;;8.20;4.40;;;;;;;15.20;62.98;99112.00;6155827;23;20177;-89
2023/10/31 04:58:02;;;;;;;9.37;3.30;;;;;;;15.18;62.92;99112.13;6129947;23;20167;-89
2023/10/31 05:00:29;;;;;;;8.43;3.37;;;;;;;15.15;62.91;99114.97;6155330;23;20162;-89
2023/10/31 05:03:01;;;;;;;4.97;3.07;;;;;;;15.16;62.86;99121.09;6131098;23;20158;-89
2023/10/31 05:05:30;;;;;;;6.93;3.03;;;;;;;15.19;62.71;99119.09;6130207;23;20155;-89
2023/10/31 05:08:17;;;;;;;5.60;2.97;;;;;;;15.18;62.47;99116.53;6155395;23;20160;-89
2023/10/31 05:10:51;;;;;;;5.47;3.13;;;;;;;15.21;62.28;99116.34;6154030;23;20157;-89
2023/10/31 05:13:16;;;;;;;7.77;3.77;;;;;;;15.15;62.10;99117.59;6127989;23;20145;-89
2023/10/31 05:15:42;;;;;;;10.73;3.40;;;;;;;15.11;62.04;99117.94;6129875;23;20190;-89
2023/10/31 05:18:07;;;;;;;7.77;3.07;;;;;;;15.19;61.92;99115.59;6155446;23;20152;-89
2023/10/31 05:20:33;;;;;;;13.47;3.33;;;;;;;15.24;61.85;99124.88;6128526;23;20187;-89
2023/10/31 05:22:58;;;;;;;5.17;2.90;;;;;;;15.20;61.89;99123.41;6155566;23;20157;-88
2023/10/31 05:25:23;;;;;;;9.97;3.10;;;;;;;15.16;61.74;99129.88;6155013;23;20149;-89
2023/10/31 05:27:49;;;;;;;10.10;3.90;;;;;;;15.18;61.76;99138.53;6129871;23;20500;-89
2023/10/31 05:30:14;;;;;;;9.90;3.03;;;;;;;15.16;61.49;99129.03;6129579;23;20201;-89
2023/10/31 05:32:40;;;;;;;6.43;3.20;;;;;;;15.13;61.58;99132.72;6129866;23;20156;-89
2023/10/31 05:35:06;;;;;;;6.73;3.73;;;;;;;15.13;61.84;99130.09;6155416;23;20195;-89
2023/10/31 05:37:31;;;;;;;10.33;4.47;;;;;;;15.27;61.70;99135.22;6129635;23;20228;-89
2023/10/31 05:39:56;;;;;;;12.83;3.60;;;;;;;15.33;61.65;99140.06;6129831;23;20155;-89
2023/10/31 05:42:23;;;;;;;12.00;3.50;;;;;;;15.36;61.61;99139.00;6130634;23;20203;-89
2023/10/31 05:44:57;;;;;;;8.30;4.10;;;;;;;15.46;61.57;99139.22;6131009;23;20162;-89
2023/10/31 05:47:25;;;;;;;8.63;4.00;;;;;;;15.62;61.28;99132.69;6155122;23;20221;-90
2023/10/31 05:49:51;;;;;;;14.17;4.47;;;;;;;15.92;60.81;99129.59;6129870;23;20163;-90
2023/10/31 05:52:17;;;;;;;5.47;3.13;;;;;;;16.15;60.26;99126.06;6155714;23;20154;-90
2023/10/31 05:54:42;;;;;;;11.07;4.20;;;;;;;16.50;59.49;99126.03;6131495;23;20254;-89
2023/10/31 05:57:08;;;;;;;14.60;5.40;;;;;;;17.00;58.22;99124.78;6157646;23;20151;-91
2023/10/31 05:59:33;;;;;;;8.83;3.93;;;;;;;17.51;56.76;99119.75;6132339;23;20158;-91
2023/10/31 06:01:59;;;;;;;8.03;4.00;;;;;;;18.05;55.03;99112.63;6131753;23;20165;-91
2023/10/31 06:04:27;;;;;;;10.33;3.33;;;;;;;18.53;53.11;99110.31;6131752;23;20497;-91
2023/10/31 06:06:53;;;;;;;7.17;3.60;;;;;;;19.16;51.65;99109.19;6132377;23;20477;-90
2023/10/31 06:09:18;;;;;;;9.20;3.63;;;;;;;19.34;50.97;99107.56;6131625;23;20159;-91
2023/10/31 06:11:44;;;;;;;8.73;3.37;;;;;;;19.18;51.13;99109.88;6131785;23;20158;-90
2023/10/31 06:14:13;;;;;;;7.83;3.50;;;;;;;18.94;51.71;99110.25;6157142;23;20152;-90
2023/10/31 06:16:43;;;;;;;6.70;3.47;;;;;;;19.14;52.05;99110.31;6156008;23;20187;-91
2023/10/31 06:19:09;;;;;;;7.27;3.40;;;;;;;19.38;51.58;99109.03;6132189;23;20161;-91
2023/10/31 06:21:34;;;;;;;6.53;3.27;;;;;;;19.91;50.82;99101.53;6131896;23;20170;-91
2023/10/31 06:24:00;;;;;;;8.57;3.73;;;;;;;20.33;49.35;99101.25;6131512;23;20501;-91
2023/10/31 06:26:27;;;;;;;6.93;3.40;;;;;;;21.06;47.74;99101.31;6132869;23;20151;-91
2023/10/31 06:28:53;;;;;;;16.27;4.73;;;;;;;21.99;44.99;99095.66;6157001;23;20151;-90
2023/10/31 06:31:18;;;;;;;8.37;4.10;;;;;;;22.69;43.96;99094.75;6132699;23;20166;-91
2023/10/31 06:33:44;;;;;;;8.90;4.30;;;;;;;23.31;42.85;99090.84;6156656;23;20151;-91
2023/10/31 06:36:09;;;;;;;11.97;4.10;;;;;;;23.73;41.54;99097.00;6155669;23;20187;-91
2023/10/31 06:38:35;;;;;;;11.47;4.10;;;;;;;24.10;40.98;99093.06;6157083;23;20147;-90
2023/10/31 06:41:00;;;;;;;11.63;5.07;;;;;;;24.36;40.72;99097.25;6157111;23;20246;-91
2023/10/31 06:43:27;;;;;;;15.13;4.53;;;;;;;24.60;40.10;99085.66;6157084;23;20179;-88
2023/10/31 06:45:53;;;;;;;14.13;5.73;;;;;;;25.03;39.21;99095.09;6131405;23;20238;-88
2023/10/31 06:48:18;;;;;;;10.37;4.97;;;;;;;25.23;38.32;99088.31;6156843;23;20233;-88
2023/10/31 06:50:44;;;;;;;13.57;5.53;;;;;;;25.02;39.52;99094.28;6157330;23;20157;-89
2023/10/31 06:53:09;;;;;;;10.87;5.17;;;;;;;24.99;39.74;99097.31;6156854;23;20480;-89
2023/10/31 06:55:35;;;;;;;9.93;4.73;;;;;;;25.10;38.90;99092.56;6131071;23;20194;-89
2023/10/31 06:58:02;;;;;;;10.67;4.37;;;;;;;25.18;38.64;99097.91;6157319;23;20158;-89
2023/10/31 07:00:28;;;;;;;11.77;5.53;;;;;;;25.14;39.65;99092.03;6156944;23;20574;-89
2023/10/31 07:02:54;;;;;;;12.57;5.13;;;;;;;25.11;38.89;99099.59;6156964;23;20147;-90
2023/10/31 07:05:20;;;;;;;10.57;5.03;;;;;;;24.83;39.19;99108.06;6156817;23;20154;-89
2023/10/31 07:07:46;;;;;;;10.13;4.37;;;;;;;24.52;40.23;99108.94;6157297;23;20159;-89
2023/10/31 07:10:12;;;;;;;16.10;4.90;;;;;;;24.35;40.88;99108.94;6156915;23;20478;-89
2023/10/31 07:12:38;;;;;;;10.30;4.47;;;;;;;24.27;41.51;99108.09;6131351;23;20161;-89
2023/10/31 07:15:04;;;;;;;16.70;5.50;;;;;;;24.23;41.16;99107.63;6131399;23;20178;-89
2023/10/31 07:17:30;;;;;;;14.63;4.37;;;;;;;24.13;41.92;99108.78;6156369;23;20150;-90
2023/10/31 07:19:56;;;;;;;10.07;4.17;;;;;;;24.12;42.18;99109.78;6156845;23;20580;-90
2023/10/31 07:22:24;;;;;;;10.77;4.50;;;;;;;24.23;41.71;99114.81;6156636;23;20151;-89
2023/10/31 07:24:52;;;;;;;10.13;4.67;;;;;;;24.40;41.71;99113.78;6156638;23;20147;-89
2023/10/31 07:27:20;;;;;;;14.03;4.37;;;;;;;24.42;41.28;99109.94;6156708;23;20634;-89
2023/10/31 07:29:49;;;;;;;13.63;4.63;;;;;;;24.39;41.28;99112.97;6130865;23;20230;-89
2023/10/31 07:32:17;;;;;;;10.10;4.00;;;;;;;24.30;41.89;99110.44;6131228;23;20467;-89
2023/10/31 07:34:45;;;;;;;17.90;5.27;;;;;;;24.20;41.99;99109.78;6156793;23;20246;-90
2023/10/31 07:37:10;;;;;;;8.67;4.50;;;;;;;24.07;42.04;99109.41;6130951;23;20507;-89
2023/10/31 07:39:36;;;;;;;14.53;4.50;;;;;;;23.87;43.13;99108.06;6156052;23;20151;-89
2023/10/31 07:42:01;;;;;;;8.57;4.37;;;;;;;23.75;43.76;99116.41;6130828;23;20482;-90
2023/10/31 07:44:26;;;;;;;9.87;4.17;;;;;;;23.62;43.49;99113.38;6156563;23;20217;-89
2023/10/31 07:46:52;;;;;;;14.27;3.90;;;;;;;23.60;43.53;99119.88;6156434;23;20179;-89
2023/10/31 07:49:17;;;;;;;12.17;4.43;;;;;;;23.62;44.20;99109.84;6157202;23;20225;-89
2023/10/31 07:51:43;;;;;;;12.97;4.43;;;;;;;23.64;44.57;99100.66;6156544;23;20424;-89
2023/10/31 07:54:09;;;;;;;13.47;5.27;;;;;;;23.83;44.38;99102.19;6156381;23;20177;-90
2023/10/31 07:56:36;;;;;;;9.57;4.60;;;;;;;23.92;43.44;99100.38;6156652;23;20533;-89
2023/10/31 07:59:01;;;;;;;9.63;4.37;;;;;;;23.62;44.29;99105.34;6156586;23;20582;-89
2023/10/31 08:01:27;;;;;;;10.73;3.90;;;;;;;23.81;43.95;99094.34;6156552;23;20611;-89
2023/10/31 08:03:53;;;;;;;8.40;3.80;;;;;;;23.98;43.22;99091.69;6155997;23;20238;-89
2023/10/31 08:06:19;;;;;;;5.93;3.47;;;;;;;24.13;42.66;99092.72;6156710;23;20186;-89
2023/10/31 08:08:45;;;;;;;11.37;4.03;;;;;;;24.24;42.62;99089.72;6156366;23;20637;-90
2023/10/31 08:11:11;;;;;;;7.17;3.10;;;;;;;24.33;42.09;99086.84;6156403;23;20159;-90
2023/10/31 08:13:37;;;;;;;11.40;3.97;;;;;;;24.44;41.74;99088.34;6155126;23;20170;-89
2023/10/31 08:16:05;;;;;;;12.57;4.30;;;;;;;24.47;41.96;99079.97;6155767;23;20254;-89
2023/10/31 08:18:31;;;;;;;8.47;4.27;;;;;;;24.50;41.67;99079.66;6156462;23;20221;-88
2023/10/31 08:20:56;;;;;;;9.07;4.53;;;;;;;24.44;42.29;99085.66;6156466;23;20151;-90
2023/10/31 08:23:22;;;;;;;14.00;7.20;;;;;;;24.69;41.36;99079.25;6156202;23;20155;-88
2023/10/31 08:25:47;;;;;;;9.80;5.77;;;;;;;24.86;40.46;99072.03;6155539;23;20218;-88
2023/10/31 08:28:13;;;;;;;14.83;5.77;;;;;;;24.90;40.99;99070.66;6130107;23;20233;-87
2023/10/31 08:30:39;;;;;;;9.73;4.67;;;;;;;25.08;41.23;99067.78;6156132;23;20262;-87
2023/10/31 08:33:04;;;;;;;13.57;5.30;;;;;;;25.11;40.75;99052.16;6156003;23;20147;-88
2023/10/31 08:35:32;;;;;;;9.37;5.07;;;;;;;25.29;40.56;99049.22;6155463;23;20209;-87
2023/10/31 08:37:58;;;;;;;9.63;4.63;;;;;;;25.34;40.38;99053.03;6155930;23;20157;-90
2023/10/31 08:40:23;;;;;;;10.43;5.57;;;;;;;25.50;39.94;99044.91;6156142;23;20155;-90
2023/10/31 08:42:51;;;;;;;17.07;5.40;;;;;;;25.50;40.63;99041.41;6156231;23;20151;-91
2023/10/31 08:45:17;;;;;;;13.10;5.10;;;;;;;25.55;39.81;99039.03;6155932;23;20166;-90
2023/10/31 08:47:42;;;;;;;9.90;5.00;;;;;;;25.57;40.02;99026.28;6130225;23;20494;-90
2023/10/31 08:50:11;;;;;;;11.57;5.30;;;;;;;25.61;39.54;99027.56;6156166;23;20158;-89
2023/10/31 08:52:38;;;;;;;13.37;5.10;;;;;;;25.54;40.72;99015.88;6155476;23;20158;-91
2023/10/31 08:55:07;;;;;;;12.20;5.30;;;;;;;25.91;39.34;99013.25;6129724;23;20269;-90
2023/10/31 08:57:34;;;;;;;9.30;5.40;;;;;;;26.03;39.74;99009.09;6155303;23;20171;-90
2023/10/31 09:00:03;;;;;;;14.30;5.57;;;;;;;26.04;39.82;99000.03;6154592;23;20183;-90
2023/10/31 09:02:31;;;;;;;12.73;5.17;;;;;;;26.01;39.47;99005.78;6156039;23;20162;-89
2023/10/31 09:04:59;;;;;;;8.70;4.80;;;;;;;26.24;39.23;98995.84;6156436;23;20150;-90
2023/10/31 09:07:24;;;;;;;13.60;4.53;;;;;;;26.50;38.32;98995.38;6155686;23;20235;-90
2023/10/31 09:09:51;;;;;;;5.65;3.45;;;;;;;26.58;39.15;98979.16;6130334;23;20196;-91
2023/10/31 09:12:16;;;;;;;7.83;2.50;;;;;;;26.68;39.12;98990.47;6129998;23;20563;-90
2023/10/31 09:14:43;;;;;;;5.90;2.65;;;;;;;26.59;38.35;98980.00;6129786;23;20229;-90
2023/10/31 09:17:08;;;;;;;9.98;3.20;;;;;;;26.72;39.22;98969.44;6155534;23;20166;-90
2023/10/31 09:19:35;;;;;;;5.70;2.55;;;;;;;26.43;38.31;98977.50;6156017;23;20151;-90
2023/10/31 09:22:02;;;;;;;6.70;2.25;;;;;;;26.67;38.76;98969.16;6155696;23;20697;-91
2023/10/31 09:24:29;;;;;;;5.95;2.50;;;;;;;26.86;39.17;98968.59;6129956;23;20159;-91
2023/10/31 09:26:55;;;;;;;6.85;2.22;;;;;;;26.91;37.54;98963.50;6156059;23;20230;-90
2023/10/31 09:29:22;;;;;;;8.88;2.53;;;;;;;27.05;37.48;98949.16;6156042;23;20233;-91
2023/10/31 09:31:49;;;;;;;5.93;2.50;;;;;;;27.07;37.07;98947.13;6130187;23;20587;-91
2023/10/31 09:34:15;;;;;;;5.13;2.60;;;;;;;26.84;37.22;98943.75;6155615;23;20601;-91
2023/10/31 09:36:42;;;;;;;5.00;1.80;;;;;;;26.80;37.96;98939.78;6129932;23;20653;-91
2023/10/31 09:39:08;;;;;;;7.97;2.47;;;;;;;26.72;38.10;98940.69;6155452;23;20147;-91
2023/10/31 09:41:33;;;;;;;6.82;2.42;;;;;;;27.11;38.41;98934.97;6155874;23;20301;-91
2023/10/31 09:43:59;;;;;;;6.03;2.03;;;;;;;27.18;37.00;98925.09;6155686;23;20173;-91
2023/10/31 09:46:24;;;;;;;6.40;2.25;;;;;;;27.26;37.88;98919.59;6155656;23;20205;-91
2023/10/31 09:48:50;;;;;;;4.68;2.28;;;;;;;27.73;36.63;98912.78;6156054;23;20147;-91
2023/10/31 09:51:15;;;;;;;8.57;2.15;;;;;;;27.49;37.50;98908.66;6156541;23;20233;-91
2023/10/31 09:53:44;;;;;;;7.32;2.50;;;;;;;27.66;37.00;98903.84;6155897;23;20641;-91
2023/10/31 09:56:10;;;;;;;5.55;2.38;;;;;;;27.77;36.77;98901.44;6129903;23;20229;-91
2023/10/31 09:58:39;;;;;;;6.95;1.85;;;;;;;27.79;36.81;98894.00;6129690;23;20567;-91
2023/10/31 10:01:05;;;;;;;6.13;2.00;;;;;;;27.88;37.34;98897.38;6155940;23;20158;-92
2023/10/31 10:03:30;;;;;;;5.22;1.70;;;;;;;27.81;36.70;98880.31;6129809;23;20155;-91
2023/10/31 10:05:57;;;;;;;6.20;2.08;;;;;;;27.94;37.20;98881.25;6130353;23;20182;-92
2023/10/31 10:08:23;;;;;;;4.25;2.20;;;;;;;28.23;36.13;98874.81;6130113;23;20161;-91
2023/10/31 10:10:51;;;;;;;7.35;2.15;;;;;;;28.32;36.58;98862.84;6129629;23;20163;-92
2023/10/31 10:13:22;;;;;;;8.35;2.30;;;;;;;28.68;36.05;98853.69;6155776;23;20250;-92
2023/10/31 10:15:52;;;;;;;5.55;2.00;;;;;;;28.94;35.71;98840.25;6155421;23;20182;-92
2023/10/31 10:18:31;;;;;;;7.75;2.50;;;;;;;29.12;35.13;98835.09;6155795;23;20446;-92
2023/10/31 10:20:59;;;;;;;6.28;2.13;;;;;;;29.26;34.60;98828.72;6130035;23;20154;-92
2023/10/31 10:23:25;;;;;;;5.95;1.83;;;;;;;28.96;35.35;98820.13;6155606;23;20194;-92
2023/10/31 10:25:52;;;;;;;4.03;1.83;;;;;;;29.17;35.26;98813.72;6129550;23;20147;-92
2023/10/31 10:28:21;;;;;;;4.72;1.95;;;;;;;29.48;34.46;98810.44;6155789;23;20148;-91
2023/10/31 10:30:47;;;;;;;5.38;2.38;;;;;;;29.30;34.98;98811.03;6155627;23;20457;-92
2023/10/31 10:33:16;;;;;;;6.20;2.38;;;;;;;29.40;35.26;98808.78;6129850;23;20159;-92
2023/10/31 10:35:42;;;;;;;8.48;2.25;;;;;;;29.39;34.32;98796.31;6154007;23;20249;-91
2023/10/31 10:38:13;;;;;;;6.80;2.08;;;;;;;29.39;34.88;98796.31;6130279;23;20162;-92
2023/10/31 10:40:43;;;;;;;8.40;2.53;;;;;;;29.77;34.94;98791.88;6157510;23;20218;-92
2023/10/31 10:43:18;;;;;;;8.27;2.53;;;;;;;29.71;33.72;98783.81;6157511;23;20166;-91
2023/10/31 10:45:48;;;;;;;4.43;2.00;;;;;;;29.85;34.42;98776.53;6158076;23;20138;-91
2023/10/31 10:48:15;;;;;;;5.65;2.20;;;;;;;29.86;35.22;98780.88;6130982;23;20193;-92
2023/10/31 10:50:59;;;;;;;5.93;2.13;;;;;;;30.08;35.25;98763.34;6131590;23;20238;-88
2023/10/31 10:53:35;;;;;;;8.77;2.05;;;;;;;30.02;33.82;98758.78;6131223;23;20579;-88
2023/10/31 10:56:13;;;;;;;4.80;1.85;;;;;;;30.16;33.82;98750.41;6157750;23;20241;-88
2023/10/31 10:59:09;;;;;;;7.15;2.45;;;;;;;30.36;34.48;98755.75;6156396;23;20169;-88
2023/10/31 11:01:52;;;;;;;8.18;3.00;;;;;;;30.71;34.05;98754.31;6131789;23;20536;-88
2023/10/31 11:04:42;;;;;;;8.82;3.08;;;;;;;30.40;34.43;98748.88;6157015;23;20146;-89
2023/10/31 11:07:12;;;;;;;7.63;2.95;;;;;;;30.56;34.60;98740.25;6131031;23;20144;-88
2023/10/31 11:09:40;;;;;;;4.28;2.08;;;;;;;30.79;34.55;98742.41;6155370;23;20258;-88
2023/10/31 11:12:07;;;;;;;5.80;2.58;;;;;;;31.02;34.35;98729.97;6156859;23;20215;-92
2023/10/31 11:14:33;;;;;;;10.15;2.83;;;;;;;31.11;33.74;98719.66;6132436;23;20547;-91
2023/10/31 11:17:06;;;;;;;7.20;2.72;;;;;;;31.09;33.89;98727.19;6131422;23;20762;-92
2023/10/31 11:19:33;;;;;;;14.18;4.80;;;;;;;31.19;33.77;98705.84;6156999;23;20163;-92
2023/10/31 11:22:00;;;;;;;7.45;3.00;;;;;;;31.01;33.82;98711.22;6131379;23;20159;-92
2023/10/31 11:24:55;;;;;;;7.85;3.40;;;;;;;30.79;33.76;98702.59;6156897;23;20154;-93
2023/10/31 11:27:20;;;;;;;11.95;4.28;;;;;;;30.84;34.00;98696.56;6078239;23;20172;-92
2023/10/31 11:29:47;;;;;;;8.00;3.45;;;;;;;30.96;33.15;98692.94;6132162;23;20170;-91
2023/10/31 11:32:14;;;;;;;8.23;2.80;;;;;;;31.23;32.29;98679.16;6130852;23;20218;-92